createdAt,value
2023-02-09T00:02:27.911Z,22.69
2023-02-09T00:05:18.869Z,22.96
2023-02-09T00:08:09.321Z,22.60
2023-02-09T00:11:00.265Z,22.80
2023-02-09T00:13:50.555Z,22.92
2023-02-09T00:16:41.085Z,22.62
2023-02-09T00:19:33.269Z,22.79
2023-02-09T00:22:23.705Z,22.75
2023-02-09T00:25:14.659Z,22.61
2023-02-09T00:28:05.518Z,22.73
2023-02-09T00:30:56.161Z,22.71
2023-02-09T00:33:46.135Z,22.73
2023-02-09T00:36:36.560Z,22.72
2023-02-09T00:39:26.829Z,22.76
2023-02-09T00:42:17.228Z,22.89
2023-02-09T00:45:08.784Z,22.78
2023-02-09T00:47:59.387Z,23.00
2023-02-09T00:50:51.212Z,23.09
2023-02-09T00:53:41.057Z,23.16
2023-02-09T00:56:31.642Z,23.33
2023-02-09T00:59:23.670Z,23.24
2023-02-09T01:02:14.121Z,23.50
2023-02-09T01:05:04.939Z,23.52
2023-02-09T01:07:55.625Z,23.71
2023-02-09T01:10:46.812Z,23.75
2023-02-09T01:13:37.536Z,23.64
2023-02-09T01:16:31.704Z,24.02
2023-02-09T01:19:22.376Z,24.21
2023-02-09T01:22:16.816Z,24.61
2023-02-09T01:25:09.941Z,24.50
2023-02-09T01:28:00.266Z,24.33
2023-02-09T01:30:51.315Z,24.26
2023-02-09T01:33:41.846Z,24.42
2023-02-09T01:36:34.069Z,24.63
2023-02-09T01:39:26.659Z,24.82
2023-02-09T01:42:19.598Z,24.73
2023-02-09T01:45:26.773Z,24.63
2023-02-09T01:48:18.388Z,24.67
2023-02-09T01:51:08.793Z,24.77
2023-02-09T01:53:59.919Z,24.64
2023-02-09T01:56:56.326Z,24.72
2023-02-09T01:59:49.834Z,24.77
2023-02-09T02:02:41.189Z,24.79
2023-02-09T02:05:32.940Z,24.62
2023-02-09T02:08:27.928Z,24.69
2023-02-09T02:11:19.445Z,24.74
2023-02-09T02:14:27.247Z,24.61
2023-02-09T02:17:33.002Z,24.91
2023-02-09T02:20:44.567Z,25.22
2023-02-09T02:23:44.638Z,25.15
2023-02-09T02:26:50.194Z,25.06
2023-02-09T02:30:08.943Z,25.33
2023-02-09T02:33:17.917Z,25.36
2023-02-09T02:36:16.148Z,25.35
2023-02-09T02:39:16.481Z,25.56
2023-02-09T02:42:31.624Z,25.73
2023-02-09T02:45:40.669Z,25.59
2023-02-09T02:48:39.089Z,25.62
2023-02-09T02:51:33.135Z,25.65
2023-02-09T02:54:29.146Z,25.87
2023-02-09T02:57:23.634Z,26.03
2023-02-09T03:00:18.615Z,25.86
2023-02-09T03:03:13.329Z,25.74
2023-02-09T03:06:07.010Z,25.86
2023-02-09T03:08:59.015Z,25.94
2023-02-09T03:11:53.119Z,26.16
2023-02-09T03:15:00.529Z,26.36
2023-02-09T03:18:01.119Z,26.39
2023-02-09T03:20:58.514Z,26.26
2023-02-09T03:23:56.095Z,26.32
2023-02-09T03:26:51.628Z,26.75
2023-02-09T03:29:43.414Z,26.88
2023-02-09T03:32:38.253Z,26.67
2023-02-09T03:35:35.934Z,26.82
2023-02-09T03:38:28.617Z,26.95
2023-02-09T03:41:19.236Z,26.74
2023-02-09T03:44:28.445Z,26.83
2023-02-09T03:47:19.567Z,26.88
2023-02-09T03:50:11.164Z,26.97
2023-02-09T03:53:02.502Z,26.98
2023-02-09T03:55:53.861Z,27.08
2023-02-09T03:58:44.662Z,26.92
2023-02-09T04:01:36.504Z,26.92
2023-02-09T04:04:27.808Z,26.88
2023-02-09T04:07:18.101Z,27.05
2023-02-09T04:10:10.585Z,27.10
2023-02-09T04:13:01.724Z,27.05
2023-02-09T04:15:52.767Z,26.93
2023-02-09T04:18:43.388Z,27.11
2023-02-09T04:21:34.299Z,27.35
2023-02-09T04:24:25.945Z,27.56
2023-02-09T04:27:17.565Z,27.50
2023-02-09T04:30:10.544Z,27.23
2023-02-09T04:33:01.578Z,27.30
2023-02-09T04:35:53.077Z,27.44
2023-02-09T04:38:43.857Z,27.62
2023-02-09T04:41:34.434Z,27.56
2023-02-09T04:44:24.812Z,27.26
2023-02-09T04:47:15.475Z,27.53
2023-02-09T04:50:07.315Z,27.35
2023-02-09T04:52:57.702Z,27.63
2023-02-09T04:55:50.059Z,27.39
2023-02-09T04:58:58.355Z,27.51
2023-02-09T05:01:49.300Z,27.63
2023-02-09T05:04:40.016Z,27.58
2023-02-09T05:07:30.243Z,27.55
2023-02-09T05:10:21.079Z,28.01
2023-02-09T05:13:13.004Z,27.69
2023-02-09T05:16:06.092Z,27.81
2023-02-09T05:18:57.774Z,27.92
2023-02-09T05:21:48.570Z,27.78
2023-02-09T05:24:39.368Z,27.88
2023-02-09T05:27:30.220Z,27.83
2023-02-09T05:30:21.551Z,27.78
2023-02-09T05:33:12.569Z,27.82
2023-02-09T05:36:08.525Z,27.92
2023-02-09T05:38:59.856Z,27.90
2023-02-09T05:42:07.639Z,28.27
2023-02-09T05:44:58.433Z,28.30
2023-02-09T05:47:49.115Z,28.04
2023-02-09T05:50:39.333Z,28.17
2023-02-09T05:53:32.648Z,28.22
2023-02-09T05:56:23.658Z,28.35
2023-02-09T05:59:14.165Z,28.32
2023-02-09T06:02:06.568Z,28.40
2023-02-09T06:04:56.635Z,28.58
2023-02-09T06:07:46.817Z,28.56
2023-02-09T06:10:37.992Z,28.44
2023-02-09T06:13:28.835Z,28.49
2023-02-09T06:16:18.912Z,28.75
2023-02-09T06:19:08.960Z,28.70
2023-02-09T06:21:59.506Z,28.81
2023-02-09T06:24:50.640Z,28.94
2023-02-09T06:27:40.816Z,32.99
2023-02-09T06:30:32.883Z,32.38
2023-02-09T06:33:23.890Z,31.01
2023-02-09T06:36:15.096Z,29.54
2023-02-09T06:39:07.938Z,29.65
2023-02-09T06:41:58.618Z,29.21
2023-02-09T06:44:48.900Z,28.97
2023-02-09T06:47:41.551Z,29.10
2023-02-09T06:50:32.239Z,29.32
2023-02-09T06:53:22.534Z,30.05
2023-02-09T06:56:14.540Z,29.18
2023-02-09T06:59:04.769Z,29.54
2023-02-09T07:01:55.770Z,29.12
2023-02-09T07:04:46.262Z,28.49
2023-02-09T07:07:37.326Z,29.37
2023-02-09T07:10:27.538Z,28.54
2023-02-09T07:13:17.944Z,28.77
2023-02-09T07:16:10.238Z,28.49
2023-02-09T07:19:02.404Z,28.55
2023-02-09T07:21:53.100Z,28.69
2023-02-09T07:24:43.204Z,27.93
2023-02-09T07:27:33.581Z,27.45
2023-02-09T07:30:24.401Z,27.30
2023-02-09T07:33:14.893Z,26.96
2023-02-09T07:36:10.146Z,26.76
2023-02-09T07:39:01.763Z,26.99
2023-02-09T07:41:51.731Z,27.30
2023-02-09T07:44:42.148Z,27.32
2023-02-09T07:47:32.345Z,27.22
2023-02-09T07:50:22.528Z,27.35
2023-02-09T07:53:12.579Z,27.50
2023-02-09T07:56:02.677Z,27.57
2023-02-09T07:58:53.498Z,27.52
2023-02-09T08:01:44.014Z,27.63
2023-02-09T08:04:35.017Z,27.39
2023-02-09T08:07:25.578Z,27.49
2023-02-09T08:10:16.480Z,27.50
2023-02-09T08:13:06.933Z,27.40
2023-02-09T08:16:02.189Z,27.49
2023-02-09T08:18:56.175Z,27.35
2023-02-09T08:21:49.813Z,27.57
2023-02-09T08:24:40.340Z,27.24
2023-02-09T08:27:31.107Z,27.24
2023-02-09T08:30:22.439Z,26.94
2023-02-09T08:33:13.734Z,26.72
2023-02-09T08:36:04.391Z,26.57
2023-02-09T08:38:54.973Z,26.77
2023-02-09T08:41:47.743Z,27.05
2023-02-09T08:44:38.229Z,26.61
2023-02-09T08:47:28.860Z,26.48
2023-02-09T08:50:19.411Z,26.14
2023-02-09T08:53:09.918Z,25.90
2023-02-09T08:56:00.944Z,25.92
2023-02-09T08:58:51.434Z,25.93
2023-02-09T09:01:42.574Z,25.71
2023-02-09T09:04:32.903Z,25.28
2023-02-09T09:07:23.525Z,24.63
2023-02-09T09:10:14.074Z,24.06
2023-02-09T09:13:04.239Z,23.43
2023-02-09T09:15:56.317Z,23.31
2023-02-09T09:18:47.030Z,23.09
2023-02-09T09:21:36.964Z,22.82
2023-02-09T09:24:28.501Z,22.28
2023-02-09T09:27:18.710Z,22.33
2023-02-09T09:30:11.369Z,21.91
2023-02-09T09:33:02.658Z,21.49
2023-02-09T09:35:53.208Z,21.02
2023-02-09T09:38:44.815Z,20.72
2023-02-09T09:41:38.268Z,20.23
2023-02-09T09:44:34.936Z,19.88
2023-02-09T09:47:35.569Z,19.47
2023-02-09T09:50:30.976Z,19.10
2023-02-09T09:53:33.077Z,18.65
2023-02-09T09:56:25.516Z,18.07
2023-02-09T09:59:22.396Z,18.06
2023-02-09T10:02:23.701Z,17.81
2023-02-09T10:05:20.931Z,16.19
2023-02-09T10:08:17.307Z,17.11
2023-02-09T10:11:11.454Z,16.87
2023-02-09T10:14:01.958Z,16.54
2023-02-09T10:16:52.703Z,16.13
2023-02-09T10:19:43.438Z,16.02
2023-02-09T10:22:33.616Z,15.59
2023-02-09T10:25:50.765Z,15.51
2023-02-09T10:28:44.178Z,15.22
2023-02-09T10:31:36.623Z,15.83
2023-02-09T10:34:33.091Z,15.86
2023-02-09T10:37:28.280Z,15.24
2023-02-09T10:40:24.768Z,14.93
2023-02-09T10:43:23.963Z,14.64
2023-02-09T10:46:19.306Z,14.73
2023-02-09T10:49:35.364Z,15.05
2023-02-09T10:52:27.404Z,14.86
2023-02-09T10:55:24.280Z,15.11
2023-02-09T10:58:23.943Z,15.26
2023-02-09T11:01:23.137Z,15.31
2023-02-09T11:04:22.149Z,15.32
2023-02-09T11:07:16.157Z,15.22
2023-02-09T11:10:14.059Z,15.39
2023-02-09T11:13:11.841Z,15.43
2023-02-09T11:16:20.930Z,15.41
2023-02-09T11:19:23.816Z,15.59
2023-02-09T11:22:20.434Z,15.81
2023-02-09T11:25:19.392Z,15.50
2023-02-09T11:28:29.641Z,15.65
2023-02-09T11:31:44.557Z,15.97
2023-02-09T11:34:59.225Z,15.97
2023-02-09T11:37:56.878Z,15.96
2023-02-09T11:40:50.690Z,15.97
2023-02-09T11:43:42.651Z,16.42
2023-02-09T11:46:35.831Z,16.40
2023-02-09T11:49:28.547Z,16.59
2023-02-09T11:52:24.168Z,16.52
2023-02-09T11:55:26.437Z,16.20
2023-02-09T11:58:30.757Z,16.30
2023-02-09T12:01:29.380Z,16.72
2023-02-09T12:04:24.190Z,16.57
2023-02-09T12:07:22.312Z,16.53
2023-02-09T12:10:24.978Z,16.46
2023-02-09T12:13:29.484Z,16.68
2023-02-09T12:16:22.379Z,16.74
2023-02-09T12:19:29.577Z,16.78
2023-02-09T12:22:49.810Z,17.18
2023-02-09T12:25:51.501Z,16.77
2023-02-09T12:28:45.044Z,17.06
2023-02-09T12:32:12.330Z,17.04
2023-02-09T12:35:26.350Z,16.94
2023-02-09T12:38:21.465Z,17.04
2023-02-09T12:41:14.210Z,17.52
2023-02-09T12:44:40.423Z,17.74
2023-02-09T12:47:59.950Z,17.89
2023-02-09T12:50:54.037Z,17.60
2023-02-09T12:53:53.381Z,17.58
2023-02-09T12:56:43.822Z,17.49
2023-02-09T12:59:34.103Z,17.67
2023-02-09T13:02:28.014Z,18.32
2023-02-09T13:05:20.392Z,17.05
2023-02-09T13:08:22.092Z,17.14
2023-02-09T13:11:25.997Z,17.29
2023-02-09T13:14:18.530Z,17.59
2023-02-09T13:17:33.547Z,17.68
2023-02-09T13:20:45.972Z,17.76
2023-02-09T13:23:45.892Z,18.02
2023-02-09T13:26:37.579Z,18.12
2023-02-09T13:29:30.061Z,18.18
2023-02-09T13:32:30.819Z,18.24
2023-02-09T13:35:26.992Z,18.23
2023-02-09T13:38:21.794Z,18.05
2023-02-09T13:41:28.417Z,18.33
2023-02-09T13:44:26.588Z,18.37
2023-02-09T13:47:18.218Z,18.85
2023-02-09T13:50:17.099Z,18.40
2023-02-09T13:53:17.840Z,18.47
2023-02-09T13:56:16.021Z,18.41
2023-02-09T13:59:06.974Z,18.76
2023-02-09T14:01:58.668Z,18.75
2023-02-09T14:04:50.954Z,18.74
2023-02-09T14:07:41.517Z,18.86
2023-02-09T14:10:33.399Z,18.61
2023-02-09T14:13:26.434Z,18.77
2023-02-09T14:16:19.420Z,18.99
2023-02-09T14:19:26.752Z,18.97
2023-02-09T14:22:33.446Z,19.20
2023-02-09T14:25:27.769Z,19.19
2023-02-09T14:28:19.165Z,19.44
2023-02-09T14:31:18.454Z,19.64
2023-02-09T14:34:25.622Z,19.45
2023-02-09T14:37:37.894Z,19.42
2023-02-09T14:40:34.631Z,19.52
2023-02-09T14:43:27.430Z,19.70
2023-02-09T14:46:17.984Z,19.70
2023-02-09T14:49:08.280Z,19.66
2023-02-09T14:52:06.150Z,19.77
2023-02-09T14:54:59.214Z,20.02
2023-02-09T14:57:50.058Z,19.86
2023-02-09T15:00:40.980Z,19.96
2023-02-09T15:03:31.438Z,20.55
2023-02-09T15:06:21.639Z,20.43
2023-02-09T15:09:18.861Z,20.12
2023-02-09T15:12:17.641Z,20.50
2023-02-09T15:15:15.732Z,20.46
2023-02-09T15:18:07.115Z,20.45
2023-02-09T15:20:59.591Z,20.32
2023-02-09T15:23:50.198Z,20.34
2023-02-09T15:26:40.774Z,20.20
2023-02-09T15:29:31.119Z,20.48
2023-02-09T15:32:22.904Z,20.65
2023-02-09T15:35:16.427Z,20.98
2023-02-09T15:38:07.200Z,20.55
2023-02-09T15:41:11.601Z,20.86
2023-02-09T15:44:23.696Z,20.60
2023-02-09T15:47:31.403Z,20.77
2023-02-09T15:50:22.298Z,20.77
2023-02-09T15:53:16.294Z,21.04
2023-02-09T15:56:09.087Z,21.25
2023-02-09T15:59:03.976Z,21.39
2023-02-09T16:01:54.844Z,21.45
2023-02-09T16:04:44.806Z,21.54
2023-02-09T16:07:35.302Z,21.10
2023-02-09T16:10:27.754Z,21.67
2023-02-09T16:13:19.104Z,21.96
2023-02-09T16:16:17.006Z,21.56
2023-02-09T16:19:08.070Z,21.76
2023-02-09T16:22:02.346Z,21.32
2023-02-09T16:24:52.722Z,21.49
2023-02-09T16:27:43.259Z,21.43
2023-02-09T16:30:37.829Z,21.76
2023-02-09T16:33:28.996Z,21.64
2023-02-09T16:36:22.060Z,21.93
2023-02-09T16:39:19.224Z,21.60
2023-02-09T16:42:14.614Z,21.75
2023-02-09T16:45:06.344Z,22.18
2023-02-09T16:47:59.372Z,21.76
2023-02-09T16:50:53.390Z,21.76
2023-02-09T16:53:48.185Z,21.58
2023-02-09T16:56:52.632Z,21.43
2023-02-09T16:59:44.811Z,21.33
2023-02-09T17:02:39.022Z,21.40
2023-02-09T17:05:31.193Z,21.49
2023-02-09T17:08:24.025Z,21.39
2023-02-09T17:11:18.256Z,21.53
2023-02-09T17:14:08.255Z,21.59
2023-02-09T17:16:58.763Z,21.60
2023-02-09T17:19:50.093Z,21.75
2023-02-09T17:22:40.471Z,21.66
2023-02-09T17:25:30.818Z,21.88
2023-02-09T17:28:21.407Z,21.93
2023-02-09T17:31:20.954Z,21.83
2023-02-09T17:34:16.945Z,21.92
2023-02-09T17:37:07.101Z,21.68
2023-02-09T17:39:58.238Z,21.77
2023-02-09T17:42:49.721Z,21.77
2023-02-09T17:45:42.062Z,21.63
2023-02-09T17:48:32.305Z,21.67
2023-02-09T17:51:27.662Z,21.78
2023-02-09T17:54:21.343Z,21.53
2023-02-09T17:57:13.537Z,21.41
2023-02-09T18:00:04.493Z,21.55
2023-02-09T18:02:57.873Z,21.62
2023-02-09T18:05:51.525Z,21.67
2023-02-09T18:08:42.119Z,21.70
2023-02-09T18:11:56.959Z,21.71
2023-02-09T18:14:46.922Z,21.74
2023-02-09T18:17:37.024Z,21.80
2023-02-09T18:20:29.295Z,21.76
2023-02-09T18:23:19.994Z,21.92
2023-02-09T18:26:10.536Z,21.99
2023-02-09T18:29:00.991Z,21.93
2023-02-09T18:31:51.173Z,22.03
2023-02-09T18:34:41.496Z,22.05
2023-02-09T18:37:31.942Z,22.04
2023-02-09T18:40:22.746Z,22.02
2023-02-09T18:43:15.844Z,22.08
2023-02-09T18:46:06.065Z,22.14
2023-02-09T18:48:57.240Z,22.35
2023-02-09T18:51:47.476Z,22.34
2023-02-09T18:54:37.266Z,22.11
2023-02-09T18:57:27.316Z,22.14
2023-02-09T19:00:20.547Z,22.11
2023-02-09T19:03:12.070Z,22.07
2023-02-09T19:06:02.567Z,22.08
2023-02-09T19:08:53.170Z,21.85
2023-02-09T19:11:43.052Z,21.90
2023-02-09T19:14:40.615Z,21.83
2023-02-09T19:17:31.242Z,21.84
2023-02-09T19:20:26.397Z,21.85
2023-02-09T19:23:16.551Z,21.86
2023-02-09T19:26:08.043Z,21.92
2023-02-09T19:29:00.538Z,21.71
2023-02-09T19:31:50.633Z,21.85
2023-02-09T19:34:43.422Z,21.75
2023-02-09T19:37:34.962Z,21.71
2023-02-09T19:40:38.506Z,21.50
2023-02-09T19:43:29.197Z,21.59
2023-02-09T19:46:20.170Z,21.82
2023-02-09T19:49:11.342Z,21.61
2023-02-09T19:52:02.103Z,21.35
2023-02-09T19:54:54.064Z,21.29
2023-02-09T19:57:44.861Z,21.37
2023-02-09T20:00:35.525Z,21.42
2023-02-09T20:03:26.766Z,21.42
2023-02-09T20:06:18.074Z,21.59
2023-02-09T20:09:08.860Z,21.30
2023-02-09T20:11:58.936Z,21.24
2023-02-09T20:14:49.316Z,21.46
2023-02-09T20:17:39.814Z,21.27
2023-02-09T20:20:30.362Z,21.16
2023-02-09T20:23:20.694Z,21.09
2023-02-09T20:26:15.880Z,21.20
2023-02-09T20:29:07.413Z,21.02
2023-02-09T20:31:57.592Z,20.97
2023-02-09T20:34:47.646Z,21.03
2023-02-09T20:37:37.742Z,21.03
2023-02-09T20:40:28.122Z,21.27
2023-02-09T20:43:35.885Z,21.14
2023-02-09T20:46:45.817Z,21.53
2023-02-09T20:49:37.278Z,21.77
2023-02-09T20:52:28.914Z,21.94
2023-02-09T20:55:22.632Z,21.86
2023-02-09T20:58:13.839Z,21.93
2023-02-09T21:01:04.055Z,21.90
2023-02-09T21:03:56.790Z,21.52
2023-02-09T21:06:47.832Z,22.09
2023-02-09T21:09:39.129Z,21.97
2023-02-09T21:12:30.396Z,21.47
2023-02-09T21:15:21.709Z,21.24
2023-02-09T21:18:11.604Z,21.56
2023-02-09T21:21:02.076Z,21.51
2023-02-09T21:23:53.640Z,21.57
2023-02-09T21:26:43.865Z,21.90
2023-02-09T21:29:34.298Z,21.69
2023-02-09T21:32:25.731Z,21.87
2023-02-09T21:35:17.365Z,21.74
2023-02-09T21:38:08.210Z,21.94
2023-02-09T21:40:58.734Z,22.17
2023-02-09T21:43:50.034Z,22.04
2023-02-09T21:46:41.064Z,21.94
2023-02-09T21:49:32.838Z,21.67
2023-02-09T21:52:23.508Z,21.96
2023-02-09T21:55:14.134Z,22.11
2023-02-09T21:58:05.047Z,21.77
2023-02-09T22:01:00.754Z,22.25
2023-02-09T22:03:57.291Z,22.50
2023-02-09T22:06:48.741Z,21.58
2023-02-09T22:09:39.470Z,21.98
2023-02-09T22:12:30.406Z,22.09
2023-02-09T22:15:20.434Z,21.56
2023-02-09T22:18:10.769Z,21.57
2023-02-09T22:21:01.610Z,21.61
2023-02-09T22:23:52.872Z,21.80
2023-02-09T22:26:42.924Z,22.02
2023-02-09T22:29:34.737Z,22.42
2023-02-09T22:32:24.788Z,21.98
2023-02-09T22:35:14.930Z,22.42
2023-02-09T22:38:05.301Z,22.87
2023-02-09T22:40:55.436Z,22.83
2023-02-09T22:43:45.758Z,22.68
2023-02-09T22:46:37.257Z,22.94
2023-02-09T22:49:27.374Z,23.06
2023-02-09T22:52:17.908Z,22.69
2023-02-09T22:55:09.167Z,22.45
2023-02-09T22:57:59.560Z,22.45
2023-02-09T23:00:50.903Z,22.93
2023-02-09T23:03:41.949Z,23.13
2023-02-09T23:06:32.991Z,23.07
2023-02-09T23:09:23.620Z,23.26
2023-02-09T23:12:13.582Z,23.11
2023-02-09T23:15:04.078Z,22.99
2023-02-09T23:17:55.623Z,23.18
2023-02-09T23:20:47.885Z,23.28
2023-02-09T23:23:38.501Z,23.29
2023-02-09T23:26:28.980Z,23.40
2023-02-09T23:29:20.052Z,23.33
2023-02-09T23:32:09.913Z,23.23
2023-02-09T23:37:50.731Z,23.38
2023-02-09T23:40:43.470Z,23.23
2023-02-09T23:43:33.917Z,23.18
2023-02-09T23:46:28.451Z,23.20
2023-02-09T23:49:18.885Z,23.16
2023-02-09T23:52:09.937Z,23.21
2023-02-09T23:55:04.094Z,23.13
2023-02-09T23:57:54.724Z,23.41
